Flight Track Log - Related Links

Times and Time Zones

All times are in EDT time to prevent confusion due to time zone crossing. See the TRS219 flight status page for this flight to view local times or setup timezone preferences in your user account.

Time Position Orientation Groundspeed Altitude Reporting Facility
EDT Latitude Longitude Course Direction KTS MPH feet Rate Location/Type
Wed 04:42:44 PM 42.3500 -71.0167 118° Southeast 166 191 700  Level KA90
Wed 04:44:08 PM 42.3167 -70.9333 118° Southeast 231 266 2,500 1,522 Climbing KA90
Wed 04:45:02 PM 42.3333 -70.8500 75° East 270 311 4,200 2,000 Climbing KA90
Wed 04:46:08 PM 42.3167 -70.7333 101° East 293 337 6,500 2,026 Climbing KA90
Wed 04:47:33 PM 42.2189 -70.7356 181° South 273 314 9,300 1,862 Climbing Boston Center
Wed 04:48:33 PM 42.1764 -70.8236 237° Southwest 227 261 11,000 1,450 Climbing Boston Center
Wed 04:49:33 PM 42.1569 -70.9361 257° West 280 322 12,200 1,240 Climbing Boston Center
Wed 04:50:34 PM 42.1422 -71.0822 262° West 342 394 13,500 1,500 Climbing Boston Center
Wed 04:51:33 PM 42.1269 -71.2028 260° West 371 427 15,200 1,664 Climbing Boston Center
Wed 04:52:33 PM 42.1075 -71.3544 260° West 371 427 16,800 1,400 Climbing Boston Center
Wed 04:53:33 PM 42.0942 -71.4806 262° West 377 434 18,000 1,550 Climbing Boston Center
Wed 04:54:33 PM 42.0744 -71.6403 261° West 389 448 19,900 1,800 Climbing Boston Center
Wed 04:55:33 PM 42.0567 -71.7914 261° West 399 459 21,600 1,400 Climbing Boston Center
Wed 04:56:33 PM 42.0367 -71.9397 260° West 404 465 22,700 1,250 Climbing Boston Center
Wed 04:57:33 PM 42.0183 -72.0936 261° West 414 476 24,100 1,300 Climbing Boston Center
Wed 04:58:33 PM 41.9981 -72.2472 260° West 414 476 25,300 1,350 Climbing Boston Center
Wed 04:59:33 PM 41.9772 -72.4011 260° West 419 482 26,800 1,250 Climbing Boston Center
Wed 05:00:33 PM 41.9586 -72.5572 261° West 425 489 27,800 850 Climbing Boston Center
Wed 05:01:33 PM 41.9333 -72.6856 255° West 420 483 28,500 900 Climbing Boston Center
Wed 05:02:33 PM 41.8581 -72.8025 229° Southwest 399 459 29,600 682 Climbing Boston Center
Wed 05:03:45 PM 41.7511 -72.9494 226° Southwest 420 483 30,000 182 Climbing Boston Center
Wed 05:04:45 PM 41.6714 -73.0569 225° Southwest 420 483 30,000  Level Boston Center
Wed 05:05:45 PM 41.5917 -73.1644 225° Southwest 415 478 30,000  Level Boston Center
Wed 05:06:45 PM 41.5178 -73.2664 226° Southwest 405 466 30,000  Level Boston Center
Wed 05:08:54 PM 41.3575 -73.4856 226° Southwest 396 456 30,000  Level New York Center
Wed 05:09:55 PM 41.2736 -73.5953 225° Southwest 407 468 30,000  Level New York Center
Wed 05:10:56 PM 41.2061 -73.7108 232° Southwest 407 468 30,000  Level New York Center
Wed 05:11:56 PM 41.1367 -73.8292 232° Southwest 412 474 30,000  Level New York Center
Wed 05:12:56 PM 41.0689 -73.9444 232° Southwest 412 474 30,000  Level New York Center
Wed 05:13:54 PM 40.9969 -74.0647 232° Southwest 412 474 30,000 -50 Level New York Center
Wed 05:14:55 PM 40.9142 -74.1925 229° Southwest 412 474 29,900 -934 Descending New York Center
Wed 05:15:56 PM 40.8483 -74.3044 232° Southwest 412 474 28,100 -1,934 Descending New York Center
Wed 05:16:56 PM 40.7803 -74.4158 231° Southwest 407 468 26,000 -1,119 Descending New York Center
Wed 05:17:54 PM 40.7122 -74.5272 231° Southwest 402 463 25,900 -454 Descending New York Center
Wed 05:18:55 PM 40.6644 -74.6533 243° Southwest 392 451 25,100 -1,180 Descending New York Center
Wed 05:19:56 PM 40.6144 -74.7789 242° Southwest 392 451 23,500 -1,475 Descending New York Center
Wed 05:20:57 PM 40.5664 -74.9044 243° Southwest 392 451 22,100 -1,462 Descending New York Center
Wed 05:21:55 PM 40.4958 -75.0094 229° Southwest 387 445 20,600 -1,563 Descending New York Center
Wed 05:22:56 PM 40.4197 -75.1000 222° Southwest 380 437 19,000 -793 Descending New York Center
Wed 05:23:56 PM 40.3414 -75.1878 221° Southwest 375 432 19,000  Level New York Center
Wed 05:24:56 PM 40.2717 -75.2678 221° Southwest 375 432 19,000  Level New York Center
Wed 05:25:54 PM 40.1844 -75.3681 221° Southwest 375 432 19,000  Level New York Center
Wed 05:26:55 PM 40.1125 -75.4500 221° Southwest 356 410 19,000  Level New York Center
Wed 05:27:55 PM 40.0403 -75.5319 221° Southwest 351 404 19,000 -298 Level New York Center
Wed 05:28:56 PM 39.9747 -75.6061 221° Southwest 325 374 18,400 -793 Descending New York Center
Wed 05:29:56 PM 39.9178 -75.6753 223° Southwest 318 366 17,400 -1,041 Descending New York Center
Wed 05:30:57 PM 39.8658 -75.7717 235° Southwest 305 351 16,300 -1,000 Descending New York Center
Wed 05:31:56 PM 39.8225 -75.8550 236° Southwest 305 351 15,400 -1,020 Descending New York Center
Wed 05:33:30 PM 39.7333 -76.0167 234° Southwest 305 351 13,700 -1,169 Descending Potomac TRACON
Wed 05:34:30 PM 39.7000 -76.1000 243° Southwest 298 343 12,400 -942 Descending Potomac TRACON
Wed 05:35:31 PM 39.6500 -76.1833 232° Southwest 294 338 11,800 -1,140 Descending Potomac TRACON
Wed 05:36:31 PM 39.6000 -76.2667 232° Southwest 290 334 10,100 -1,600 Descending Potomac TRACON
Wed 05:37:31 PM 39.5500 -76.3333 226° Southwest 271 312 8,600 -1,686 Descending Potomac TRACON
Wed 05:38:32 PM 39.4833 -76.3833 210° Southwest 258 297 6,700 -2,033 Descending Potomac TRACON
Wed 05:39:32 PM 39.4167 -76.4333 210° Southwest 270 311 4,500 -1,350 Descending Potomac TRACON
Wed 05:40:32 PM 39.3500 -76.4167 169° South 283 326 4,000 -250 Descending Potomac TRACON
Wed 05:41:32 PM 39.2833 -76.3833 159° South 268 308 4,000  Level Potomac TRACON
Wed 05:42:33 PM 39.2333 -76.3500 153° Southeast 196 226 4,000  Level Potomac TRACON
Wed 05:43:33 PM 39.1833 -76.3167 153° Southeast 193 222 4,000  Level Potomac TRACON
Wed 05:44:27 PM 39.1333 -76.2833 153° Southeast 195 224 4,000  Level Potomac TRACON
Wed 05:45:27 PM 39.1000 -76.2333 131° Southeast 198 228 4,000  Level Potomac TRACON
Wed 05:46:27 PM 39.0500 -76.2333 180° South 193 222 4,000  Level Potomac TRACON
Wed 05:47:27 PM 39.0000 -76.2500 195° South 191 220 4,000  Level Potomac TRACON
Wed 05:48:33 PM 38.9667 -76.3000 229° Southwest 185 213 4,000  Level Potomac TRACON
Wed 05:49:27 PM 38.9333 -76.3333 218° Southwest 189 217 4,000  Level Potomac TRACON
Wed 05:50:27 PM 38.9333 -76.4000 270° West 171 197 4,000  Level Potomac TRACON
Wed 05:51:33 PM 38.9500 -76.4667 288° West 173 199 4,000 -200 Level Potomac TRACON
Wed 05:52:27 PM 38.9833 -76.5000 322° Northwest 171 197 3,600 -939 Descending Potomac TRACON
Wed 05:53:28 PM 39.0167 -76.5333 322° Northwest 173 199 2,200 -793 Descending Potomac TRACON
Wed 05:54:28 PM 39.0667 -76.5667 333° Northwest 173 199 2,000 -250 Descending Potomac TRACON
Wed 05:55:28 PM 39.1000 -76.6000 322° Northwest 171 197 1,700 -300 Descending Potomac TRACON

Login

Don't have an account? Register now (free) for customized features, flight alerts, and more!